sensor_id;sensor_type;location;lat;lon;timestamp;temperature;humidity
10968;DHT22;5536;49.602;10.980;2023-03-23T00:00:12;10.50;99.90
10968;DHT22;5536;49.602;10.980;2023-03-23T00:02:39;10.40;99.90
10968;DHT22;5536;49.602;10.980;2023-03-23T00:05:09;10.50;99.90
10968;DHT22;5536;49.602;10.980;2023-03-23T00:07:36;10.50;99.90
10968;DHT22;5536;49.602;10.980;2023-03-23T00:10:04;10.50;99.90
10968;DHT22;5536;49.602;10.980;2023-03-23T00:12:32;10.60;99.90
10968;DHT22;5536;49.602;10.980;2023-03-23T00:15:05;10.60;99.90
10968;DHT22;5536;49.602;10.980;2023-03-23T00:17:35;10.50;99.90
10968;DHT22;5536;49.602;10.980;2023-03-23T00:20:04;10.50;99.90
10968;DHT22;5536;49.602;10.980;2023-03-23T00:22:32;10.50;99.90
10968;DHT22;5536;49.602;10.980;2023-03-23T00:25:03;10.50;99.90
10968;DHT22;5536;49.602;10.980;2023-03-23T00:27:30;10.50;99.90
10968;DHT22;5536;49.602;10.980;2023-03-23T00:29:58;10.50;99.90
10968;DHT22;5536;49.602;10.980;2023-03-23T00:32:25;10.50;99.90
10968;DHT22;5536;49.602;10.980;2023-03-23T00:34:56;10.60;99.90
10968;DHT22;5536;49.602;10.980;2023-03-23T00:37:25;10.80;99.90
10968;DHT22;5536;49.602;10.980;2023-03-23T00:39:52;10.80;99.90
10968;DHT22;5536;49.602;10.980;2023-03-23T00:42:23;10.90;99.90
10968;DHT22;5536;49.602;10.980;2023-03-23T00:44:50;11.00;99.90
10968;DHT22;5536;49.602;10.980;2023-03-23T00:47:19;11.00;99.90
10968;DHT22;5536;49.602;10.980;2023-03-23T00:49:46;11.00;99.90
10968;DHT22;5536;49.602;10.980;2023-03-23T00:52:15;11.00;99.90
10968;DHT22;5536;49.602;10.980;2023-03-23T00:54:42;11.00;99.90
10968;DHT22;5536;49.602;10.980;2023-03-23T00:57:09;11.00;99.90
10968;DHT22;5536;49.602;10.980;2023-03-23T00:59:36;11.00;99.90
10968;DHT22;5536;49.602;10.980;2023-03-23T01:02:03;10.80;99.90
10968;DHT22;5536;49.602;10.980;2023-03-23T01:04:31;10.80;99.90
10968;DHT22;5536;49.602;10.980;2023-03-23T01:07:02;10.80;99.90
10968;DHT22;5536;49.602;10.980;2023-03-23T01:09:32;10.90;99.90
10968;DHT22;5536;49.602;10.980;2023-03-23T01:12:01;10.80;99.90
10968;DHT22;5536;49.602;10.980;2023-03-23T01:14:28;10.70;99.90
10968;DHT22;5536;49.602;10.980;2023-03-23T01:16:56;10.80;99.90
10968;DHT22;5536;49.602;10.980;2023-03-23T01:19:23;10.70;99.90
10968;DHT22;5536;49.602;10.980;2023-03-23T01:21:51;10.70;99.90
10968;DHT22;5536;49.602;10.980;2023-03-23T01:24:18;10.70;99.90
10968;DHT22;5536;49.602;10.980;2023-03-23T01:26:47;10.70;99.90
10968;DHT22;5536;49.602;10.980;2023-03-23T01:29:15;10.70;99.90
10968;DHT22;5536;49.602;10.980;2023-03-23T01:31:42;10.70;99.90
10968;DHT22;5536;49.602;10.980;2023-03-23T01:34:09;10.70;99.90
10968;DHT22;5536;49.602;10.980;2023-03-23T01:36:37;10.60;99.90
10968;DHT22;5536;49.602;10.980;2023-03-23T01:39:05;10.60;99.90
10968;DHT22;5536;49.602;10.980;2023-03-23T01:41:33;10.60;99.90
10968;DHT22;5536;49.602;10.980;2023-03-23T01:44:04;10.60;99.90
10968;DHT22;5536;49.602;10.980;2023-03-23T01:46:33;10.60;99.90
10968;DHT22;5536;49.602;10.980;2023-03-23T01:49:03;10.80;99.90
10968;DHT22;5536;49.602;10.980;2023-03-23T01:51:35;10.90;99.90
10968;DHT22;5536;49.602;10.980;2023-03-23T01:54:05;10.90;99.90
10968;DHT22;5536;49.602;10.980;2023-03-23T01:56:38;11.00;99.90
10968;DHT22;5536;49.602;10.980;2023-03-23T01:59:08;10.90;99.90
10968;DHT22;5536;49.602;10.980;2023-03-23T02:01:36;10.90;99.90
10968;DHT22;5536;49.602;10.980;2023-03-23T02:04:09;11.00;99.90
10968;DHT22;5536;49.602;10.980;2023-03-23T02:06:36;11.00;99.90
10968;DHT22;5536;49.602;10.980;2023-03-23T02:09:03;11.00;99.90
10968;DHT22;5536;49.602;10.980;2023-03-23T02:11:32;11.00;99.90
10968;DHT22;5536;49.602;10.980;2023-03-23T02:14:00;10.90;99.90
10968;DHT22;5536;49.602;10.980;2023-03-23T02:16:33;10.90;99.90
10968;DHT22;5536;49.602;10.980;2023-03-23T02:19:29;10.90;99.90
10968;DHT22;5536;49.602;10.980;2023-03-23T02:22:33;10.80;99.90
10968;DHT22;5536;49.602;10.980;2023-03-23T02:25:24;10.90;99.90
10968;DHT22;5536;49.602;10.980;2023-03-23T02:28:19;10.90;99.90
10968;DHT22;5536;49.602;10.980;2023-03-23T02:31:27;10.90;99.90
10968;DHT22;5536;49.602;10.980;2023-03-23T02:34:09;11.00;99.90
10968;DHT22;5536;49.602;10.980;2023-03-23T02:36:41;10.90;99.90
10968;DHT22;5536;49.602;10.980;2023-03-23T02:39:14;11.00;99.90
10968;DHT22;5536;49.602;10.980;2023-03-23T02:41:48;11.00;99.90
10968;DHT22;5536;49.602;10.980;2023-03-23T02:44:17;11.00;99.90
10968;DHT22;5536;49.602;10.980;2023-03-23T02:46:45;11.00;99.90
10968;DHT22;5536;49.602;10.980;2023-03-23T02:49:15;11.00;99.90
10968;DHT22;5536;49.602;10.980;2023-03-23T02:51:46;11.00;99.90
10968;DHT22;5536;49.602;10.980;2023-03-23T02:54:15;11.10;99.90
10968;DHT22;5536;49.602;10.980;2023-03-23T02:56:43;11.20;99.90
10968;DHT22;5536;49.602;10.980;2023-03-23T02:59:11;11.30;99.90
10968;DHT22;5536;49.602;10.980;2023-03-23T03:02:03;11.20;99.90
10968;DHT22;5536;49.602;10.980;2023-03-23T03:04:34;11.20;99.90
10968;DHT22;5536;49.602;10.980;2023-03-23T03:07:27;11.20;99.90
10968;DHT22;5536;49.602;10.980;2023-03-23T03:09:59;11.20;99.90
10968;DHT22;5536;49.602;10.980;2023-03-23T03:12:34;11.20;99.90
10968;DHT22;5536;49.602;10.980;2023-03-23T03:15:11;11.20;99.90
10968;DHT22;5536;49.602;10.980;2023-03-23T03:17:42;11.30;99.90
10968;DHT22;5536;49.602;10.980;2023-03-23T03:20:14;11.30;99.90
10968;DHT22;5536;49.602;10.980;2023-03-23T03:22:44;11.40;99.90
10968;DHT22;5536;49.602;10.980;2023-03-23T03:25:15;11.40;99.90
10968;DHT22;5536;49.602;10.980;2023-03-23T03:27:44;11.40;99.90
10968;DHT22;5536;49.602;10.980;2023-03-23T03:30:16;11.40;99.90
10968;DHT22;5536;49.602;10.980;2023-03-23T03:32:47;11.40;99.90
10968;DHT22;5536;49.602;10.980;2023-03-23T03:35:18;11.40;99.90
10968;DHT22;5536;49.602;10.980;2023-03-23T03:37:45;11.40;99.90
10968;DHT22;5536;49.602;10.980;2023-03-23T03:40:14;11.50;99.90
10968;DHT22;5536;49.602;10.980;2023-03-23T03:42:43;11.50;99.90
10968;DHT22;5536;49.602;10.980;2023-03-23T03:45:14;11.50;99.90
10968;DHT22;5536;49.602;10.980;2023-03-23T03:47:41;11.50;99.90
10968;DHT22;5536;49.602;10.980;2023-03-23T03:50:09;11.50;99.90
10968;DHT22;5536;49.602;10.980;2023-03-23T03:52:38;11.50;99.90
10968;DHT22;5536;49.602;10.980;2023-03-23T03:55:06;11.50;99.90
10968;DHT22;5536;49.602;10.980;2023-03-23T03:57:35;11.50;99.90
10968;DHT22;5536;49.602;10.980;2023-03-23T04:00:06;11.40;99.90
10968;DHT22;5536;49.602;10.980;2023-03-23T04:02:39;11.40;99.90
10968;DHT22;5536;49.602;10.980;2023-03-23T04:05:07;11.40;99.90
10968;DHT22;5536;49.602;10.980;2023-03-23T04:07:36;11.40;99.90
10968;DHT22;5536;49.602;10.980;2023-03-23T04:10:08;11.40;99.90
10968;DHT22;5536;49.602;10.980;2023-03-23T04:12:35;11.50;99.90
10968;DHT22;5536;49.602;10.980;2023-03-23T04:15:03;11.50;99.90
10968;DHT22;5536;49.602;10.980;2023-03-23T04:17:30;11.50;99.90
10968;DHT22;5536;49.602;10.980;2023-03-23T04:19:58;11.50;99.90
10968;DHT22;5536;49.602;10.980;2023-03-23T04:22:27;11.50;99.90
10968;DHT22;5536;49.602;10.980;2023-03-23T04:24:57;11.50;99.90
10968;DHT22;5536;49.602;10.980;2023-03-23T04:27:29;11.50;99.90
10968;DHT22;5536;49.602;10.980;2023-03-23T04:29:57;11.60;99.90
10968;DHT22;5536;49.602;10.980;2023-03-23T04:32:25;11.60;99.90
10968;DHT22;5536;49.602;10.980;2023-03-23T04:34:55;11.60;99.90
10968;DHT22;5536;49.602;10.980;2023-03-23T04:37:23;11.60;99.90
10968;DHT22;5536;49.602;10.980;2023-03-23T04:39:54;11.60;99.90
10968;DHT22;5536;49.602;10.980;2023-03-23T04:42:28;11.60;99.90
10968;DHT22;5536;49.602;10.980;2023-03-23T04:44:55;11.60;99.90
10968;DHT22;5536;49.602;10.980;2023-03-23T04:47:23;11.60;99.90
10968;DHT22;5536;49.602;10.980;2023-03-23T04:49:50;11.60;99.90
10968;DHT22;5536;49.602;10.980;2023-03-23T04:52:18;11.60;99.90
10968;DHT22;5536;49.602;10.980;2023-03-23T04:54:46;11.60;99.90
10968;DHT22;5536;49.602;10.980;2023-03-23T04:57:13;11.70;99.90
10968;DHT22;5536;49.602;10.980;2023-03-23T04:59:42;11.70;99.90
10968;DHT22;5536;49.602;10.980;2023-03-23T05:02:10;11.70;99.90
10968;DHT22;5536;49.602;10.980;2023-03-23T05:04:38;11.60;99.90
10968;DHT22;5536;49.602;10.980;2023-03-23T05:07:06;11.70;99.90
10968;DHT22;5536;49.602;10.980;2023-03-23T05:09:34;11.60;99.90
10968;DHT22;5536;49.602;10.980;2023-03-23T05:12:05;11.70;99.90
10968;DHT22;5536;49.602;10.980;2023-03-23T05:14:32;11.60;99.90
10968;DHT22;5536;49.602;10.980;2023-03-23T05:17:01;11.60;99.90
10968;DHT22;5536;49.602;10.980;2023-03-23T05:19:28;11.60;99.90
10968;DHT22;5536;49.602;10.980;2023-03-23T05:21:57;11.60;99.90
10968;DHT22;5536;49.602;10.980;2023-03-23T05:24:29;11.60;99.90
10968;DHT22;5536;49.602;10.980;2023-03-23T05:26:58;11.60;99.90
10968;DHT22;5536;49.602;10.980;2023-03-23T05:29:25;11.60;99.90
10968;DHT22;5536;49.602;10.980;2023-03-23T05:31:56;11.60;99.90
10968;DHT22;5536;49.602;10.980;2023-03-23T05:34:26;11.60;99.90
10968;DHT22;5536;49.602;10.980;2023-03-23T05:36:54;11.60;99.90
10968;DHT22;5536;49.602;10.980;2023-03-23T05:39:23;11.60;99.90
10968;DHT22;5536;49.602;10.980;2023-03-23T05:41:50;11.60;99.90
10968;DHT22;5536;49.602;10.980;2023-03-23T05:44:17;11.50;99.90
10968;DHT22;5536;49.602;10.980;2023-03-23T05:46:44;11.50;99.90
10968;DHT22;5536;49.602;10.980;2023-03-23T05:49:11;11.50;99.90
10968;DHT22;5536;49.602;10.980;2023-03-23T05:51:40;11.50;99.90
10968;DHT22;5536;49.602;10.980;2023-03-23T05:54:07;11.50;99.90
10968;DHT22;5536;49.602;10.980;2023-03-23T05:56:36;11.50;99.90
10968;DHT22;5536;49.602;10.980;2023-03-23T05:59:03;11.60;99.90
10968;DHT22;5536;49.602;10.980;2023-03-23T06:01:30;11.60;99.90
10968;DHT22;5536;49.602;10.980;2023-03-23T06:03:58;11.60;99.90
10968;DHT22;5536;49.602;10.980;2023-03-23T06:06:25;11.60;99.90
10968;DHT22;5536;49.602;10.980;2023-03-23T06:08:54;11.70;99.90
10968;DHT22;5536;49.602;10.980;2023-03-23T06:11:21;11.60;99.90
10968;DHT22;5536;49.602;10.980;2023-03-23T06:13:48;11.70;99.90
10968;DHT22;5536;49.602;10.980;2023-03-23T06:16:15;11.70;99.90
10968;DHT22;5536;49.602;10.980;2023-03-23T06:18:42;11.80;99.90
10968;DHT22;5536;49.602;10.980;2023-03-23T06:21:10;11.80;99.90
10968;DHT22;5536;49.602;10.980;2023-03-23T06:23:38;11.80;99.90
10968;DHT22;5536;49.602;10.980;2023-03-23T06:26:08;11.80;99.90
10968;DHT22;5536;49.602;10.980;2023-03-23T06:28:35;11.90;99.90
10968;DHT22;5536;49.602;10.980;2023-03-23T06:31:03;12.00;99.90
10968;DHT22;5536;49.602;10.980;2023-03-23T06:33:32;12.10;99.90
10968;DHT22;5536;49.602;10.980;2023-03-23T06:35:59;12.10;99.90
10968;DHT22;5536;49.602;10.980;2023-03-23T06:38:27;12.10;99.90
10968;DHT22;5536;49.602;10.980;2023-03-23T06:40:54;12.20;99.90
10968;DHT22;5536;49.602;10.980;2023-03-23T06:43:24;12.20;99.90
10968;DHT22;5536;49.602;10.980;2023-03-23T06:45:51;12.20;99.90
10968;DHT22;5536;49.602;10.980;2023-03-23T06:48:18;12.30;99.90
10968;DHT22;5536;49.602;10.980;2023-03-23T06:50:46;12.30;99.90
10968;DHT22;5536;49.602;10.980;2023-03-23T06:53:13;12.30;99.90
10968;DHT22;5536;49.602;10.980;2023-03-23T06:55:42;12.30;99.90
10968;DHT22;5536;49.602;10.980;2023-03-23T06:58:10;12.40;99.90
10968;DHT22;5536;49.602;10.980;2023-03-23T07:00:39;12.50;99.90
10968;DHT22;5536;49.602;10.980;2023-03-23T07:03:06;12.40;99.90
10968;DHT22;5536;49.602;10.980;2023-03-23T07:05:34;12.40;99.90
10968;DHT22;5536;49.602;10.980;2023-03-23T07:08:01;12.40;99.90
10968;DHT22;5536;49.602;10.980;2023-03-23T07:10:29;12.30;99.90
10968;DHT22;5536;49.602;10.980;2023-03-23T07:12:57;12.30;99.90
10968;DHT22;5536;49.602;10.980;2023-03-23T07:15:24;12.30;99.90
10968;DHT22;5536;49.602;10.980;2023-03-23T07:17:53;12.20;99.90
10968;DHT22;5536;49.602;10.980;2023-03-23T07:20:21;12.20;99.90
10968;DHT22;5536;49.602;10.980;2023-03-23T07:22:48;12.20;99.90
10968;DHT22;5536;49.602;10.980;2023-03-23T07:25:15;12.20;99.90
10968;DHT22;5536;49.602;10.980;2023-03-23T07:27:44;12.20;99.90
10968;DHT22;5536;49.602;10.980;2023-03-23T07:30:12;12.10;99.90
10968;DHT22;5536;49.602;10.980;2023-03-23T07:32:39;12.20;99.90
10968;DHT22;5536;49.602;10.980;2023-03-23T07:35:08;12.30;99.90
10968;DHT22;5536;49.602;10.980;2023-03-23T07:37:36;12.30;99.90
10968;DHT22;5536;49.602;10.980;2023-03-23T07:40:03;12.40;99.90
10968;DHT22;5536;49.602;10.980;2023-03-23T07:42:40;12.40;99.90
10968;DHT22;5536;49.602;10.980;2023-03-23T07:45:08;12.60;99.90
10968;DHT22;5536;49.602;10.980;2023-03-23T07:47:35;12.60;99.90
10968;DHT22;5536;49.602;10.980;2023-03-23T07:50:03;12.70;99.90
10968;DHT22;5536;49.602;10.980;2023-03-23T07:52:34;12.80;99.90
10968;DHT22;5536;49.602;10.980;2023-03-23T07:55:03;12.90;99.90
10968;DHT22;5536;49.602;10.980;2023-03-23T07:57:30;13.00;99.90
10968;DHT22;5536;49.602;10.980;2023-03-23T07:59:58;13.10;99.90
10968;DHT22;5536;49.602;10.980;2023-03-23T08:02:25;13.10;99.90
10968;DHT22;5536;49.602;10.980;2023-03-23T08:04:53;13.20;99.90
10968;DHT22;5536;49.602;10.980;2023-03-23T08:07:22;13.20;99.90
10968;DHT22;5536;49.602;10.980;2023-03-23T08:09:50;13.10;99.90
10968;DHT22;5536;49.602;10.980;2023-03-23T08:12:17;13.20;99.90
10968;DHT22;5536;49.602;10.980;2023-03-23T08:14:45;13.20;99.90
10968;DHT22;5536;49.602;10.980;2023-03-23T08:17:13;13.20;99.90
10968;DHT22;5536;49.602;10.980;2023-03-23T08:19:40;13.20;99.90
10968;DHT22;5536;49.602;10.980;2023-03-23T08:22:08;13.10;99.90
10968;DHT22;5536;49.602;10.980;2023-03-23T08:24:36;13.10;99.90
10968;DHT22;5536;49.602;10.980;2023-03-23T08:27:04;13.20;99.90
10968;DHT22;5536;49.602;10.980;2023-03-23T08:29:32;13.10;99.90
10968;DHT22;5536;49.602;10.980;2023-03-23T08:31:59;13.10;99.90
10968;DHT22;5536;49.602;10.980;2023-03-23T08:34:28;13.20;99.90
10968;DHT22;5536;49.602;10.980;2023-03-23T08:36:56;13.30;99.90
10968;DHT22;5536;49.602;10.980;2023-03-23T08:39:23;13.30;99.90
10968;DHT22;5536;49.602;10.980;2023-03-23T08:41:50;13.30;99.90
10968;DHT22;5536;49.602;10.980;2023-03-23T08:44:19;13.40;99.90
10968;DHT22;5536;49.602;10.980;2023-03-23T08:46:46;13.40;99.90
10968;DHT22;5536;49.602;10.980;2023-03-23T08:49:13;13.40;99.90
10968;DHT22;5536;49.602;10.980;2023-03-23T08:51:41;13.50;99.90
10968;DHT22;5536;49.602;10.980;2023-03-23T08:54:09;13.50;99.90
10968;DHT22;5536;49.602;10.980;2023-03-23T08:56:36;13.50;99.90
10968;DHT22;5536;49.602;10.980;2023-03-23T08:59:03;13.60;99.90
10968;DHT22;5536;49.602;10.980;2023-03-23T09:01:31;13.70;99.90
10968;DHT22;5536;49.602;10.980;2023-03-23T09:03:59;13.80;99.90
10968;DHT22;5536;49.602;10.980;2023-03-23T09:06:26;13.90;99.90
10968;DHT22;5536;49.602;10.980;2023-03-23T09:08:54;14.10;99.90
10968;DHT22;5536;49.602;10.980;2023-03-23T09:11:22;14.10;99.90
10968;DHT22;5536;49.602;10.980;2023-03-23T09:13:49;14.10;99.90
10968;DHT22;5536;49.602;10.980;2023-03-23T09:16:15;14.10;99.90
10968;DHT22;5536;49.602;10.980;2023-03-23T09:18:44;14.10;99.90
10968;DHT22;5536;49.602;10.980;2023-03-23T09:21:11;14.10;99.90
10968;DHT22;5536;49.602;10.980;2023-03-23T09:23:39;14.20;99.90
10968;DHT22;5536;49.602;10.980;2023-03-23T09:26:09;14.10;99.90
10968;DHT22;5536;49.602;10.980;2023-03-23T09:28:36;14.20;99.90
10968;DHT22;5536;49.602;10.980;2023-03-23T09:31:04;14.30;99.90
10968;DHT22;5536;49.602;10.980;2023-03-23T09:33:31;14.50;99.90
10968;DHT22;5536;49.602;10.980;2023-03-23T09:36:01;14.60;99.90
10968;DHT22;5536;49.602;10.980;2023-03-23T09:38:30;14.70;99.90
10968;DHT22;5536;49.602;10.980;2023-03-23T09:41:03;14.80;99.90
10968;DHT22;5536;49.602;10.980;2023-03-23T09:43:50;14.80;99.90
10968;DHT22;5536;49.602;10.980;2023-03-23T09:46:32;15.10;99.90
10968;DHT22;5536;49.602;10.980;2023-03-23T09:49:02;15.10;99.90
10968;DHT22;5536;49.602;10.980;2023-03-23T09:51:42;15.10;99.90
10968;DHT22;5536;49.602;10.980;2023-03-23T09:54:14;15.00;99.90
10968;DHT22;5536;49.602;10.980;2023-03-23T09:56:44;15.00;99.90
10968;DHT22;5536;49.602;10.980;2023-03-23T09:59:16;14.80;99.90
10968;DHT22;5536;49.602;10.980;2023-03-23T10:01:47;14.80;99.60
10968;DHT22;5536;49.602;10.980;2023-03-23T10:04:26;14.80;99.90
10968;DHT22;5536;49.602;10.980;2023-03-23T10:06:58;14.80;99.90
10968;DHT22;5536;49.602;10.980;2023-03-23T10:09:26;14.70;99.90
10968;DHT22;5536;49.602;10.980;2023-03-23T10:12:04;14.60;99.90
10968;DHT22;5536;49.602;10.980;2023-03-23T10:14:48;14.60;99.90
10968;DHT22;5536;49.602;10.980;2023-03-23T10:17:20;14.60;99.90
10968;DHT22;5536;49.602;10.980;2023-03-23T10:19:52;14.60;99.90
10968;DHT22;5536;49.602;10.980;2023-03-23T10:22:26;14.50;99.90
10968;DHT22;5536;49.602;10.980;2023-03-23T10:25:03;14.50;99.90
10968;DHT22;5536;49.602;10.980;2023-03-23T10:27:33;14.50;99.90
10968;DHT22;5536;49.602;10.980;2023-03-23T10:30:14;14.50;99.90
10968;DHT22;5536;49.602;10.980;2023-03-23T10:32:44;14.60;99.90
10968;DHT22;5536;49.602;10.980;2023-03-23T10:35:18;14.60;99.90
10968;DHT22;5536;49.602;10.980;2023-03-23T10:37:50;14.60;99.90
10968;DHT22;5536;49.602;10.980;2023-03-23T10:40:21;14.60;99.90
10968;DHT22;5536;49.602;10.980;2023-03-23T10:42:51;14.70;99.90
10968;DHT22;5536;49.602;10.980;2023-03-23T10:45:21;14.80;99.90
10968;DHT22;5536;49.602;10.980;2023-03-23T10:47:53;14.90;99.90
10968;DHT22;5536;49.602;10.980;2023-03-23T10:50:26;15.00;99.90
10968;DHT22;5536;49.602;10.980;2023-03-23T10:52:57;14.80;99.90
10968;DHT22;5536;49.602;10.980;2023-03-23T10:55:34;14.70;99.90
10968;DHT22;5536;49.602;10.980;2023-03-23T10:58:03;14.70;99.90
10968;DHT22;5536;49.602;10.980;2023-03-23T11:00:31;14.60;99.90
10968;DHT22;5536;49.602;10.980;2023-03-23T11:03:01;14.50;99.90
10968;DHT22;5536;49.602;10.980;2023-03-23T11:05:35;14.40;99.90
10968;DHT22;5536;49.602;10.980;2023-03-23T11:08:11;14.30;99.90
10968;DHT22;5536;49.602;10.980;2023-03-23T11:10:41;14.30;99.90
10968;DHT22;5536;49.602;10.980;2023-03-23T11:13:13;14.40;99.90
10968;DHT22;5536;49.602;10.980;2023-03-23T11:15:41;14.50;99.90
10968;DHT22;5536;49.602;10.980;2023-03-23T11:18:12;14.60;99.90
10968;DHT22;5536;49.602;10.980;2023-03-23T11:20:41;14.50;99.90
10968;DHT22;5536;49.602;10.980;2023-03-23T11:23:31;14.60;99.90
10968;DHT22;5536;49.602;10.980;2023-03-23T11:26:06;14.50;99.90
10968;DHT22;5536;49.602;10.980;2023-03-23T11:28:36;14.50;99.90
10968;DHT22;5536;49.602;10.980;2023-03-23T11:31:06;14.50;99.90
10968;DHT22;5536;49.602;10.980;2023-03-23T11:33:38;14.50;99.90
10968;DHT22;5536;49.602;10.980;2023-03-23T11:36:07;14.40;99.90
10968;DHT22;5536;49.602;10.980;2023-03-23T11:38:36;14.40;99.90
10968;DHT22;5536;49.602;10.980;2023-03-23T11:41:10;14.40;99.90
10968;DHT22;5536;49.602;10.980;2023-03-23T11:43:45;14.40;99.90
10968;DHT22;5536;49.602;10.980;2023-03-23T11:46:20;14.60;99.90
10968;DHT22;5536;49.602;10.980;2023-03-23T11:48:54;14.60;99.90
10968;DHT22;5536;49.602;10.980;2023-03-23T11:51:27;14.60;99.90
10968;DHT22;5536;49.602;10.980;2023-03-23T11:54:02;14.70;99.90
10968;DHT22;5536;49.602;10.980;2023-03-23T11:56:34;14.80;99.90
10968;DHT22;5536;49.602;10.980;2023-03-23T11:59:02;14.80;99.90
10968;DHT22;5536;49.602;10.980;2023-03-23T12:01:41;14.80;99.90
10968;DHT22;5536;49.602;10.980;2023-03-23T12:04:30;14.90;99.90
10968;DHT22;5536;49.602;10.980;2023-03-23T12:07:09;15.00;99.90
10968;DHT22;5536;49.602;10.980;2023-03-23T12:09:49;15.00;99.90
10968;DHT22;5536;49.602;10.980;2023-03-23T12:12:23;15.00;99.90
10968;DHT22;5536;49.602;10.980;2023-03-23T12:14:59;15.00;99.90
10968;DHT22;5536;49.602;10.980;2023-03-23T12:17:38;15.00;99.90
10968;DHT22;5536;49.602;10.980;2023-03-23T12:20:24;14.90;99.90
10968;DHT22;5536;49.602;10.980;2023-03-23T12:23:02;15.00;99.90
10968;DHT22;5536;49.602;10.980;2023-03-23T12:25:51;15.10;99.90
10968;DHT22;5536;49.602;10.980;2023-03-23T12:28:29;15.10;99.90
10968;DHT22;5536;49.602;10.980;2023-03-23T12:31:05;15.20;99.90
10968;DHT22;5536;49.602;10.980;2023-03-23T12:33:43;15.10;99.90
10968;DHT22;5536;49.602;10.980;2023-03-23T12:36:20;15.10;99.90
10968;DHT22;5536;49.602;10.980;2023-03-23T12:41:46;15.00;99.90
10968;DHT22;5536;49.602;10.980;2023-03-23T12:44:19;15.10;99.90
10968;DHT22;5536;49.602;10.980;2023-03-23T12:47:14;15.10;99.90
10968;DHT22;5536;49.602;10.980;2023-03-23T12:49:46;15.10;99.90
10968;DHT22;5536;49.602;10.980;2023-03-23T12:52:19;15.10;99.90
10968;DHT22;5536;49.602;10.980;2023-03-23T12:54:50;15.20;99.90
10968;DHT22;5536;49.602;10.980;2023-03-23T12:57:24;15.30;99.90
10968;DHT22;5536;49.602;10.980;2023-03-23T12:59:59;15.30;99.90
10968;DHT22;5536;49.602;10.980;2023-03-23T13:02:35;15.40;99.90
10968;DHT22;5536;49.602;10.980;2023-03-23T13:05:08;15.50;99.90
10968;DHT22;5536;49.602;10.980;2023-03-23T13:07:48;15.40;99.90
10968;DHT22;5536;49.602;10.980;2023-03-23T13:10:21;15.40;99.90
10968;DHT22;5536;49.602;10.980;2023-03-23T13:12:51;15.30;99.90
10968;DHT22;5536;49.602;10.980;2023-03-23T13:15:26;15.30;99.90
10968;DHT22;5536;49.602;10.980;2023-03-23T13:18:02;15.20;99.90
10968;DHT22;5536;49.602;10.980;2023-03-23T13:20:52;15.20;99.90
10968;DHT22;5536;49.602;10.980;2023-03-23T13:23:22;15.30;99.90
10968;DHT22;5536;49.602;10.980;2023-03-23T13:25:54;15.40;99.90
10968;DHT22;5536;49.602;10.980;2023-03-23T13:28:26;15.40;99.90
10968;DHT22;5536;49.602;10.980;2023-03-23T13:30:59;15.50;99.90
10968;DHT22;5536;49.602;10.980;2023-03-23T13:33:30;15.70;99.90
10968;DHT22;5536;49.602;10.980;2023-03-23T13:36:04;15.90;99.90
10968;DHT22;5536;49.602;10.980;2023-03-23T13:38:33;16.20;99.90
10968;DHT22;5536;49.602;10.980;2023-03-23T13:41:07;16.30;99.90
10968;DHT22;5536;49.602;10.980;2023-03-23T13:43:38;16.50;99.90
10968;DHT22;5536;49.602;10.980;2023-03-23T13:46:26;16.90;98.70
10968;DHT22;5536;49.602;10.980;2023-03-23T13:49:14;17.10;97.60
10968;DHT22;5536;49.602;10.980;2023-03-23T13:51:52;17.40;96.20
10968;DHT22;5536;49.602;10.980;2023-03-23T13:54:29;17.60;92.90
10968;DHT22;5536;49.602;10.980;2023-03-23T13:56:58;17.50;92.40
10968;DHT22;5536;49.602;10.980;2023-03-23T13:59:46;17.20;92.50
10968;DHT22;5536;49.602;10.980;2023-03-23T14:02:38;17.20;93.70
10968;DHT22;5536;49.602;10.980;2023-03-23T14:05:24;16.70;93.50
10968;DHT22;5536;49.602;10.980;2023-03-23T14:07:54;16.30;94.10
10968;DHT22;5536;49.602;10.980;2023-03-23T14:10:22;16.00;95.20
10968;DHT22;5536;49.602;10.980;2023-03-23T14:12:52;15.90;96.00
10968;DHT22;5536;49.602;10.980;2023-03-23T14:15:21;15.90;95.50
10968;DHT22;5536;49.602;10.980;2023-03-23T14:17:54;15.80;96.00
10968;DHT22;5536;49.602;10.980;2023-03-23T14:20:26;15.80;96.50
10968;DHT22;5536;49.602;10.980;2023-03-23T14:22:54;15.90;96.80
10968;DHT22;5536;49.602;10.980;2023-03-23T14:25:26;15.90;96.90
10968;DHT22;5536;49.602;10.980;2023-03-23T14:27:53;16.00;96.70
10968;DHT22;5536;49.602;10.980;2023-03-23T14:30:23;16.10;95.70
10968;DHT22;5536;49.602;10.980;2023-03-23T14:32:51;16.00;96.30
10968;DHT22;5536;49.602;10.980;2023-03-23T14:35:25;16.00;95.50
10968;DHT22;5536;49.602;10.980;2023-03-23T14:37:53;15.90;96.20
10968;DHT22;5536;49.602;10.980;2023-03-23T14:40:20;15.90;96.00
10968;DHT22;5536;49.602;10.980;2023-03-23T14:42:50;15.90;96.40
10968;DHT22;5536;49.602;10.980;2023-03-23T14:45:22;15.90;96.50
10968;DHT22;5536;49.602;10.980;2023-03-23T14:47:52;15.90;96.20
10968;DHT22;5536;49.602;10.980;2023-03-23T14:50:25;15.80;95.70
10968;DHT22;5536;49.602;10.980;2023-03-23T14:52:57;15.70;96.20
10968;DHT22;5536;49.602;10.980;2023-03-23T14:55:25;15.70;96.20
10968;DHT22;5536;49.602;10.980;2023-03-23T14:57:54;15.60;96.60
10968;DHT22;5536;49.602;10.980;2023-03-23T15:00:25;15.60;96.30
10968;DHT22;5536;49.602;10.980;2023-03-23T15:02:56;15.50;96.70
10968;DHT22;5536;49.602;10.980;2023-03-23T15:05:27;15.40;96.90
10968;DHT22;5536;49.602;10.980;2023-03-23T15:08:00;15.40;96.90
10968;DHT22;5536;49.602;10.980;2023-03-23T15:10:28;15.40;97.10
10968;DHT22;5536;49.602;10.980;2023-03-23T15:12:56;15.50;96.90
10968;DHT22;5536;49.602;10.980;2023-03-23T15:15:28;15.60;96.60
10968;DHT22;5536;49.602;10.980;2023-03-23T15:17:56;15.60;96.50
10968;DHT22;5536;49.602;10.980;2023-03-23T15:20:27;15.60;96.70
10968;DHT22;5536;49.602;10.980;2023-03-23T15:22:54;15.70;96.90
10968;DHT22;5536;49.602;10.980;2023-03-23T15:25:24;15.70;97.10
10968;DHT22;5536;49.602;10.980;2023-03-23T15:27:58;15.80;97.20
10968;DHT22;5536;49.602;10.980;2023-03-23T15:30:32;15.80;97.10
10968;DHT22;5536;49.602;10.980;2023-03-23T15:33:02;15.80;97.00
10968;DHT22;5536;49.602;10.980;2023-03-23T15:35:34;15.70;96.80
10968;DHT22;5536;49.602;10.980;2023-03-23T15:38:03;15.60;97.30
10968;DHT22;5536;49.602;10.980;2023-03-23T15:40:34;15.70;97.10
10968;DHT22;5536;49.602;10.980;2023-03-23T15:43:08;15.70;97.60
10968;DHT22;5536;49.602;10.980;2023-03-23T15:45:53;15.70;97.90
10968;DHT22;5536;49.602;10.980;2023-03-23T15:48:22;15.70;97.80
10968;DHT22;5536;49.602;10.980;2023-03-23T15:50:50;15.70;98.10
10968;DHT22;5536;49.602;10.980;2023-03-23T15:53:26;15.80;97.60
10968;DHT22;5536;49.602;10.980;2023-03-23T15:55:53;15.70;98.10